Time;durP1;ratioP1;P1;durP2;ratioP2;P2;SDS_P1;SDS_P2;PMS_P1;PMS_P2;Temp;Humidity;BMP_temperature;BMP_pressure;BME280_temperature;BME280_humidity;BME280_pressure;Samples;Min_cycle;Max_cycle;Signal;HPM_P1;HPM_P2
2022/05/29 00:00:23;;;;;;;6.20;2.50;;;13.20;99.90;;;;;;5093703;28;20508;-47
2022/05/29 00:02:50;;;;;;;2.60;1.80;;;13.00;99.90;;;;;;5093794;28;20440;-43
2022/05/29 00:05:17;;;;;;;2.93;2.17;;;12.90;99.90;;;;;;5093706;28;20471;-42
2022/05/29 00:07:49;;;;;;;7.23;2.30;;;13.00;99.90;;;;;;5093399;28;20831;-43
2022/05/29 00:10:16;;;;;;;2.70;1.77;;;13.10;99.90;;;;;;5093590;28;20440;-44
2022/05/29 00:12:43;;;;;;;2.90;1.40;;;13.10;99.90;;;;;;5093385;28;20475;-46
2022/05/29 00:15:13;;;;;;;2.70;2.10;;;13.00;99.90;;;;;;5092809;28;20526;-43
2022/05/29 00:17:39;;;;;;;2.97;1.93;;;13.00;99.90;;;;;;5095711;22;21051;-48
2022/05/29 00:20:08;;;;;;;3.07;1.90;;;13.00;99.90;;;;;;5072321;28;20508;-45
2022/05/29 00:22:36;;;;;;;4.23;1.93;;;13.00;99.90;;;;;;5073022;28;20921;-45
2022/05/29 00:25:08;;;;;;;2.23;2.03;;;12.70;99.90;;;;;;5072992;28;20472;-45
2022/05/29 00:27:35;;;;;;;3.63;1.67;;;12.50;99.90;;;;;;5073035;28;20472;-45
2022/05/29 00:30:02;;;;;;;5.43;2.27;;;12.40;99.90;;;;;;5072561;28;20543;-45
2022/05/29 00:32:30;;;;;;;2.10;1.90;;;12.30;99.90;;;;;;5072687;28;20534;-47
2022/05/29 00:34:57;;;;;;;4.50;1.90;;;12.20;99.90;;;;;;5072809;28;20486;-48
2022/05/29 00:37:24;;;;;;;3.10;1.73;;;12.20;99.90;;;;;;5072720;28;20514;-45
2022/05/29 00:39:51;;;;;;;3.10;1.97;;;12.40;99.90;;;;;;5072504;28;20513;-45
2022/05/29 00:42:22;;;;;;;2.30;2.10;;;12.60;99.90;;;;;;5072981;28;20480;-45
2022/05/29 00:44:50;;;;;;;2.40;1.43;;;12.70;99.90;;;;;;5072917;28;20519;-45
2022/05/29 00:47:19;;;;;;;3.00;1.77;;;12.70;99.90;;;;;;5072472;28;20470;-45
2022/05/29 00:49:49;;;;;;;6.73;2.40;;;12.50;99.90;;;;;;5072547;28;20445;-45
2022/05/29 00:52:18;;;;;;;2.63;1.73;;;12.50;99.90;;;;;;5072379;28;20452;-46
2022/05/29 00:54:53;;;;;;;3.00;1.90;;;12.60;99.90;;;;;;5072491;28;20472;-45
2022/05/29 00:57:25;;;;;;;3.10;2.00;;;12.70;99.90;;;;;;5072287;28;20463;-46
2022/05/29 00:59:53;;;;;;;4.03;1.67;;;12.60;99.90;;;;;;5072023;28;21014;-44
2022/05/29 01:02:20;;;;;;;4.70;2.37;;;12.50;99.90;;;;;;5072237;28;20523;-44
2022/05/29 01:04:49;;;;;;;2.13;1.80;;;12.50;99.90;;;;;;5072072;28;20448;-47
2022/05/29 01:07:18;;;;;;;2.67;1.80;;;12.60;99.90;;;;;;5072122;28;20492;-44
2022/05/29 01:09:49;;;;;;;4.67;1.70;;;12.60;99.90;;;;;;5071751;28;20448;-45
2022/05/29 01:12:27;;;;;;;3.90;2.73;;;12.60;99.90;;;;;;5072146;28;20436;-45
2022/05/29 01:15:02;;;;;;;3.40;1.97;;;12.60;99.90;;;;;;5071945;28;20436;-45
2022/05/29 01:17:38;;;;;;;3.70;1.80;;;12.40;99.90;;;;;;5071777;28;20504;-45
2022/05/29 01:20:21;;;;;;;2.07;1.83;;;12.00;99.90;;;;;;5071680;28;20945;-44
2022/05/29 01:23:01;;;;;;;4.50;2.33;;;11.70;99.90;;;;;;5072165;28;20509;-45
2022/05/29 01:26:08;;;;;;;4.87;2.57;;;11.80;99.90;;;;;;5071195;28;20874;-45
2022/05/29 01:28:56;;;;;;;6.90;2.30;;;11.90;99.90;;;;;;5071679;28;20440;-45
2022/05/29 01:31:33;;;;;;;3.23;1.73;;;12.10;99.90;;;;;;5072031;28;20469;-45
2022/05/29 01:34:11;;;;;;;3.83;2.33;;;12.30;99.90;;;;;;5071419;28;20562;-45
2022/05/29 01:36:47;;;;;;;2.77;1.80;;;12.40;99.90;;;;;;5071480;28;20529;-44
2022/05/29 01:39:22;;;;;;;2.13;1.70;;;12.50;99.90;;;;;;5071374;28;20476;-45
2022/05/29 01:41:56;;;;;;;2.53;2.07;;;12.50;99.90;;;;;;5071830;28;20478;-45
2022/05/29 01:44:31;;;;;;;2.77;1.90;;;12.60;99.90;;;;;;5071552;28;20439;-47
2022/05/29 01:47:07;;;;;;;2.30;1.90;;;12.60;99.90;;;;;;5071813;28;20465;-45
2022/05/29 01:49:40;;;;;;;6.53;2.30;;;12.60;99.90;;;;;;5071354;28;20925;-45
2022/05/29 01:52:13;;;;;;;2.80;2.57;;;12.60;99.90;;;;;;5071450;28;20449;-45
2022/05/29 01:54:45;;;;;;;5.03;2.17;;;12.60;99.90;;;;;;5071193;28;20511;-47
2022/05/29 01:57:16;;;;;;;2.60;2.40;;;12.60;99.90;;;;;;5071370;28;21023;-45
2022/05/29 01:59:50;;;;;;;3.13;1.90;;;12.60;99.90;;;;;;5071463;28;20816;-45
2022/05/29 02:02:22;;;;;;;2.37;2.00;;;12.60;99.90;;;;;;5071418;28;21002;-45
2022/05/29 02:04:54;;;;;;;2.07;1.70;;;12.50;99.90;;;;;;5071217;28;20514;-45
2022/05/29 02:10:17;;;;;;;2.53;1.83;;;12.40;99.90;;;;;;5071024;28;20514;-44
2022/05/29 02:12:50;;;;;;;3.00;1.80;;;12.40;99.90;;;;;;5071200;28;20885;-45
2022/05/29 02:15:23;;;;;;;4.80;1.90;;;12.50;99.90;;;;;;5071097;28;20888;-49
2022/05/29 02:17:57;;;;;;;3.67;2.30;;;12.50;99.90;;;;;;5071140;28;20468;-45
2022/05/29 02:20:26;;;;;;;4.03;2.00;;;12.50;99.90;;;;;;5071103;28;20531;-44
2022/05/29 02:22:57;;;;;;;2.57;1.87;;;12.50;99.90;;;;;;5071260;28;20440;-46
2022/05/29 02:25:27;;;;;;;2.07;1.60;;;12.60;99.90;;;;;;5071025;28;20532;-47
2022/05/29 02:27:58;;;;;;;3.73;2.57;;;12.70;99.90;;;;;;5071416;28;20533;-45
2022/05/29 02:30:34;;;;;;;3.50;2.10;;;12.80;99.90;;;;;;5071022;28;20937;-44
2022/05/29 02:33:08;;;;;;;2.60;2.00;;;12.80;99.90;;;;;;5071275;28;20900;-45
2022/05/29 02:35:42;;;;;;;4.73;2.20;;;12.80;99.90;;;;;;5071083;28;20442;-45
2022/05/29 02:38:15;;;;;;;4.43;2.60;;;12.80;99.90;;;;;;5073463;28;21006;-45
2022/05/29 02:40:49;;;;;;;3.10;2.30;;;12.80;99.90;;;;;;5074921;28;20497;-44
2022/05/29 02:43:20;;;;;;;3.97;2.30;;;12.80;99.90;;;;;;5074765;28;20479;-47
2022/05/29 02:45:54;;;;;;;2.97;2.30;;;12.80;99.90;;;;;;5074917;28;20440;-45
2022/05/29 02:48:30;;;;;;;4.00;2.53;;;12.80;99.90;;;;;;5074756;28;20445;-50
2022/05/29 02:51:02;;;;;;;2.60;2.20;;;12.80;99.90;;;;;;5074583;28;20444;-47
2022/05/29 02:53:29;;;;;;;2.57;2.30;;;12.80;99.90;;;;;;5075077;28;20468;-45
2022/05/29 02:55:57;;;;;;;5.03;2.37;;;12.50;99.90;;;;;;5074392;28;20464;-45
2022/05/29 02:58:29;;;;;;;3.33;2.13;;;12.40;99.90;;;;;;5074388;28;20489;-46
2022/05/29 03:01:18;;;;;;;2.40;2.20;;;12.20;99.90;;;;;;5074351;28;20940;-45
2022/05/29 03:03:56;;;;;;;3.00;2.63;;;12.20;99.90;;;;;;5074734;28;20445;-45
2022/05/29 03:06:37;;;;;;;3.40;2.87;;;12.20;99.90;;;;;;5074316;28;20464;-44
2022/05/29 03:09:15;;;;;;;3.60;2.40;;;12.30;99.90;;;;;;5074026;28;20823;-48
2022/05/29 03:11:44;;;;;;;4.30;2.27;;;12.40;99.90;;;;;;5074343;28;20504;-45
2022/05/29 03:14:25;;;;;;;3.53;2.73;;;12.40;99.90;;;;;;5074524;28;20482;-45
2022/05/29 03:17:06;;;;;;;2.73;2.27;;;12.30;99.90;;;;;;5074515;28;20545;-45
2022/05/29 03:19:42;;;;;;;5.27;4.77;;;12.20;99.90;;;;;;5073963;28;20443;-46
2022/05/29 03:22:20;;;;;;;7.63;5.67;;;12.10;99.90;;;;;;5074616;28;20443;-46
2022/05/29 03:24:57;;;;;;;6.53;5.80;;;11.90;99.90;;;;;;5074328;28;20509;-48
2022/05/29 03:27:34;;;;;;;6.10;4.90;;;11.90;99.90;;;;;;5074131;28;20523;-45
2022/05/29 03:30:06;;;;;;;5.53;5.03;;;11.70;99.90;;;;;;5074125;28;20467;-44
2022/05/29 03:32:36;;;;;;;6.00;4.33;;;11.70;99.90;;;;;;5074135;28;20523;-44
2022/05/29 03:35:17;;;;;;;4.27;3.97;;;11.80;99.90;;;;;;5073873;28;20512;-46
2022/05/29 03:37:44;;;;;;;3.93;3.53;;;11.70;99.90;;;;;;5073850;28;20460;-45
2022/05/29 03:40:12;;;;;;;7.23;4.93;;;11.80;99.90;;;;;;5073528;28;20447;-45
2022/05/29 03:42:39;;;;;;;4.43;4.03;;;11.80;99.90;;;;;;5073958;28;20510;-47
2022/05/29 03:45:08;;;;;;;4.83;4.37;;;11.50;99.90;;;;;;5073703;28;20440;-44
2022/05/29 03:47:36;;;;;;;6.30;4.90;;;11.30;99.90;;;;;;5073800;28;20496;-49
2022/05/29 03:50:04;;;;;;;7.77;4.47;;;11.30;99.90;;;;;;5072532;28;20444;-45
2022/05/29 03:52:31;;;;;;;4.80;4.30;;;11.50;99.90;;;;;;5073797;28;20484;-45
2022/05/29 03:54:58;;;;;;;6.70;5.20;;;11.60;99.90;;;;;;5073652;28;20488;-45
2022/05/29 03:57:26;;;;;;;7.47;4.70;;;11.70;99.90;;;;;;5073414;28;20460;-46
2022/05/29 03:59:53;;;;;;;5.60;4.50;;;11.50;99.90;;;;;;5073715;28;20444;-44
2022/05/29 04:02:20;;;;;;;7.20;6.50;;;11.40;99.90;;;;;;5073429;28;20502;-45
2022/05/29 04:04:48;;;;;;;5.67;4.93;;;11.50;99.90;;;;;;5073590;28;20465;-45
2022/05/29 04:07:15;;;;;;;4.93;4.43;;;11.60;99.90;;;;;;5073154;28;20498;-45
2022/05/29 04:12:27;;;;;;;4.20;3.80;;;11.50;99.90;;;;;;5073595;28;21067;-45
2022/05/29 04:14:54;;;;;;;4.53;4.00;;;10.80;99.90;;;;;;5073579;28;20472;-45
2022/05/29 04:17:21;;;;;;;4.70;4.00;;;10.60;99.90;;;;;;5072836;28;20541;-45
2022/05/29 04:19:49;;;;;;;4.63;3.80;;;10.40;99.90;;;;;;5072693;28;20444;-45
2022/05/29 04:22:21;;;;;;;5.37;3.93;;;10.30;99.90;;;;;;5073115;28;20498;-45
2022/05/29 04:24:48;;;;;;;4.43;3.77;;;10.40;99.90;;;;;;5073339;28;20497;-45
2022/05/29 04:27:17;;;;;;;4.20;3.67;;;10.50;99.90;;;;;;5072987;28;20467;-44
2022/05/29 04:29:44;;;;;;;4.33;3.37;;;10.60;99.90;;;;;;5072670;28;20479;-46
2022/05/29 04:34:57;;;;;;;4.30;3.50;;;10.80;99.90;;;;;;5072979;28;20723;-44
2022/05/29 04:37:25;;;;;;;5.20;3.53;;;10.80;99.90;;;;;;5072973;28;20844;-44
2022/05/29 04:39:52;;;;;;;3.30;3.00;;;10.80;99.90;;;;;;5072492;28;20483;-45
2022/05/29 04:42:19;;;;;;;4.30;3.70;;;10.80;99.90;;;;;;5072627;28;20582;-44
2022/05/29 04:44:46;;;;;;;3.53;3.23;;;11.00;99.90;;;;;;5072397;28;20937;-45
2022/05/29 04:47:13;;;;;;;4.90;3.60;;;11.00;99.90;;;;;;5072535;28;20465;-45
2022/05/29 04:49:40;;;;;;;4.73;3.50;;;11.20;99.90;;;;;;5072345;28;20476;-45
2022/05/29 04:52:10;;;;;;;5.47;3.43;;;11.20;99.90;;;;;;5072553;28;20470;-45
2022/05/29 04:54:39;;;;;;;3.97;3.57;;;11.20;99.90;;;;;;5072176;28;20563;-45
2022/05/29 04:57:07;;;;;;;4.33;3.47;;;11.30;99.90;;;;;;5072381;28;20476;-45
2022/05/29 04:59:34;;;;;;;4.70;3.80;;;11.20;99.90;;;;;;5072226;28;20436;-45
2022/05/29 05:02:01;;;;;;;4.97;3.93;;;11.00;99.90;;;;;;5072346;28;20436;-45
2022/05/29 05:04:29;;;;;;;4.50;3.97;;;11.00;99.90;;;;;;5072178;28;20440;-45
2022/05/29 05:06:58;;;;;;;4.57;3.90;;;10.90;99.90;;;;;;5072044;28;20464;-47
2022/05/29 05:09:27;;;;;;;4.23;3.20;;;10.70;99.90;;;;;;5071622;28;20445;-44
2022/05/29 05:11:55;;;;;;;5.97;4.30;;;10.60;99.90;;;;;;5071942;28;20476;-45
2022/05/29 05:14:24;;;;;;;4.00;3.60;;;10.60;99.90;;;;;;5071954;28;20472;-46
2022/05/29 05:16:53;;;;;;;6.30;3.50;;;10.80;99.90;;;;;;5071741;28;20541;-45
2022/05/29 05:19:20;;;;;;;3.97;3.60;;;10.90;99.90;;;;;;5071931;28;20447;-45
2022/05/29 05:21:48;;;;;;;5.57;3.80;;;11.10;99.90;;;;;;5071887;28;20532;-44
2022/05/29 05:24:15;;;;;;;5.50;3.30;;;11.20;99.90;;;;;;5072178;28;20462;-45
2022/05/29 05:26:44;;;;;;;3.70;3.30;;;11.30;99.90;;;;;;5071671;28;20977;-44
2022/05/29 05:29:11;;;;;;;3.60;3.30;;;11.30;99.90;;;;;;5071507;28;20494;-45
2022/05/29 05:31:38;;;;;;;5.23;3.83;;;11.30;99.90;;;;;;5072127;28;20509;-45
2022/05/29 05:34:05;;;;;;;5.73;5.13;;;11.30;99.90;;;;;;5071382;28;20510;-46
2022/05/29 05:36:32;;;;;;;4.77;3.60;;;11.30;99.90;;;;;;5071685;28;20547;-46
2022/05/29 05:38:59;;;;;;;4.23;3.60;;;11.30;99.90;;;;;;5071666;28;20437;-48
2022/05/29 05:41:26;;;;;;;4.13;3.47;;;11.30;99.90;;;;;;5071797;28;20440;-45
2022/05/29 05:43:54;;;;;;;4.20;3.70;;;11.30;99.90;;;;;;5071701;28;20468;-44
2022/05/29 05:46:22;;;;;;;3.30;3.00;;;11.30;99.90;;;;;;5071844;28;20456;-44
2022/05/29 05:48:49;;;;;;;5.03;3.80;;;11.10;99.90;;;;;;5071498;28;20444;-45
2022/05/29 05:51:16;;;;;;;4.07;3.53;;;11.10;99.90;;;;;;5071751;28;20440;-45
2022/05/29 05:53:43;;;;;;;4.23;3.40;;;10.90;99.90;;;;;;5071337;28;20932;-45
2022/05/29 05:56:12;;;;;;;4.40;3.83;;;10.90;99.90;;;;;;5071198;28;20523;-44
2022/05/29 05:58:39;;;;;;;4.83;3.90;;;10.80;99.90;;;;;;5071233;28;20452;-44
2022/05/29 06:01:10;;;;;;;4.20;3.60;;;10.60;99.90;;;;;;5071182;28;20854;-44
2022/05/29 06:03:38;;;;;;;3.60;3.30;;;10.70;99.90;;;;;;5071555;28;20436;-45
2022/05/29 06:06:05;;;;;;;5.23;4.73;;;10.70;99.90;;;;;;5071237;28;20466;-45
2022/05/29 06:08:33;;;;;;;4.27;3.97;;;10.80;99.90;;;;;;5071314;28;20487;-45
2022/05/29 06:11:00;;;;;;;6.00;3.90;;;11.00;99.90;;;;;;5070843;28;20531;-45
2022/05/29 06:13:27;;;;;;;3.77;3.47;;;11.10;99.90;;;;;;5070875;28;20494;-45
2022/05/29 06:15:54;;;;;;;3.70;3.40;;;11.10;99.90;;;;;;5071248;28;20568;-45
2022/05/29 06:18:23;;;;;;;4.17;3.80;;;11.20;99.90;;;;;;5143859;22;20548;-44
2022/05/29 06:20:57;;;;;;;3.87;3.50;;;11.30;99.90;;;;;;5090721;28;20522;-42
2022/05/29 06:23:24;;;;;;;3.80;3.33;;;11.20;99.90;;;;;;5091507;28;20513;-44
2022/05/29 06:25:51;;;;;;;3.77;3.20;;;11.30;99.90;;;;;;5091299;28;20974;-43
2022/05/29 06:28:18;;;;;;;4.60;4.13;;;11.30;99.90;;;;;;5090967;28;20486;-43
2022/05/29 06:30:45;;;;;;;6.20;5.23;;;11.40;99.90;;;;;;5090936;28;20485;-43
2022/05/29 06:33:13;;;;;;;4.17;3.77;;;11.40;99.90;;;;;;5091135;28;20439;-43
2022/05/29 06:35:42;;;;;;;3.93;3.57;;;11.40;99.90;;;;;;5091504;28;20551;-43
2022/05/29 06:38:09;;;;;;;5.93;4.40;;;11.30;99.90;;;;;;5091121;28;20491;-43
2022/05/29 06:40:36;;;;;;;4.33;3.93;;;11.40;99.90;;;;;;5090818;28;20479;-43
2022/05/29 06:43:02;;;;;;;5.17;3.20;;;11.40;99.90;;;;;;5091310;28;20481;-43
2022/05/29 06:45:30;;;;;;;3.40;3.13;;;11.30;99.90;;;;;;5091375;28;20467;-45
2022/05/29 06:47:57;;;;;;;4.37;3.70;;;11.20;99.90;;;;;;5091092;28;20466;-43
2022/05/29 06:50:23;;;;;;;3.27;2.93;;;11.30;99.90;;;;;;5090751;28;20445;-42
2022/05/29 06:52:52;;;;;;;3.77;3.47;;;11.40;99.90;;;;;;5091172;28;20482;-43
2022/05/29 06:55:21;;;;;;;4.07;3.43;;;11.40;99.90;;;;;;5091077;28;20471;-42
2022/05/29 06:57:48;;;;;;;3.70;3.10;;;11.50;99.90;;;;;;5091125;28;20474;-47
2022/05/29 07:08:35;;;;;;;3.67;3.37;;;11.50;99.90;;;;;;5090921;28;20454;-42
2022/05/29 07:11:06;;;;;;;3.90;3.50;;;11.40;99.90;;;;;;5090470;28;20458;-42
2022/05/29 07:13:34;;;;;;;4.00;3.60;;;11.40;99.90;;;;;;5091291;28;20858;-43
2022/05/29 07:16:02;;;;;;;3.73;3.13;;;11.10;99.90;;;;;;5091007;28;20529;-43
2022/05/29 07:18:30;;;;;;;5.70;3.00;;;10.60;99.90;;;;;;5090528;28;20522;-47
2022/05/29 07:21:00;;;;;;;4.93;3.63;;;10.40;99.90;;;;;;5090657;28;20447;-42
2022/05/29 07:23:27;;;;;;;3.63;3.33;;;10.30;99.90;;;;;;5090891;28;20813;-43
2022/05/29 07:25:55;;;;;;;5.00;3.73;;;10.30;99.90;;;;;;5094508;28;20863;-43
2022/05/29 07:28:22;;;;;;;4.73;3.47;;;10.20;99.90;;;;;;5094645;28;20465;-43
2022/05/29 07:30:50;;;;;;;7.07;3.70;;;10.30;99.90;;;;;;5094399;28;20436;-42
2022/05/29 07:33:17;;;;;;;3.63;3.33;;;10.30;99.90;;;;;;5094425;28;20474;-43
2022/05/29 07:35:45;;;;;;;4.50;3.17;;;10.30;99.90;;;;;;5094156;28;20527;-49
2022/05/29 07:38:12;;;;;;;4.30;3.30;;;10.30;99.90;;;;;;5094000;28;20461;-42
2022/05/29 07:40:39;;;;;;;3.17;2.90;;;10.40;99.90;;;;;;5093878;28;20786;-43
2022/05/29 07:43:18;;;;;;;3.27;2.97;;;10.30;99.90;;;;;;5094150;28;20875;-43
2022/05/29 07:45:46;;;;;;;4.57;3.70;;;10.60;99.90;;;;;;5094285;28;20518;-42
2022/05/29 07:48:13;;;;;;;3.23;2.50;;;10.80;99.90;;;;;;5094098;28;20465;-42
2022/05/29 07:50:40;;;;;;;2.50;2.30;;;10.70;99.90;;;;;;5093954;28;20478;-44
2022/05/29 07:53:07;;;;;;;3.90;2.13;;;10.50;99.90;;;;;;5094202;28;20472;-45
2022/05/29 07:55:34;;;;;;;2.70;1.93;;;10.60;99.90;;;;;;5093981;28;20467;-47
2022/05/29 07:58:00;;;;;;;4.57;3.00;;;10.60;99.90;;;;;;5094093;28;20498;-43
2022/05/29 08:00:29;;;;;;;4.40;2.40;;;10.60;99.90;;;;;;5093825;28;20482;-42
2022/05/29 08:02:56;;;;;;;2.93;1.57;;;10.60;99.90;;;;;;5094055;28;20482;-42
2022/05/29 08:05:23;;;;;;;3.50;1.47;;;10.20;99.90;;;;;;5093740;28;20465;-43
2022/05/29 08:07:51;;;;;;;2.90;1.60;;;9.80;99.90;;;;;;5094086;28;20490;-42
2022/05/29 08:10:20;;;;;;;2.17;1.80;;;9.60;99.90;;;;;;5093335;28;20876;-42
2022/05/29 08:12:47;;;;;;;3.20;1.80;;;9.50;99.90;;;;;;5093494;28;20475;-43
2022/05/29 08:15:15;;;;;;;2.70;1.50;;;9.50;99.90;;;;;;5093609;28;20565;-40
2022/05/29 08:17:43;;;;;;;2.50;1.73;;;9.40;99.90;;;;;;5093784;28;20509;-42
2022/05/29 08:20:13;;;;;;;5.07;1.90;;;9.40;99.90;;;;;;5093714;28;20443;-42
2022/05/29 08:22:40;;;;;;;2.97;1.83;;;9.50;99.90;;;;;;5093532;28;20444;-44
2022/05/29 08:30:42;;;;;;;1.60;1.43;;;10.00;99.90;;;;;;5093367;28;20419;-43
2022/05/29 08:33:12;;;;;;;3.30;1.70;;;10.00;99.90;;;;;;5093491;28;20436;-42
2022/05/29 08:35:41;;;;;;;1.73;1.30;;;10.00;99.90;;;;;;5092939;28;20486;-42
2022/05/29 08:38:10;;;;;;;3.10;1.37;;;9.80;99.90;;;;;;5093182;28;20520;-46
2022/05/29 08:40:43;;;;;;;1.80;1.60;;;9.50;99.90;;;;;;5093241;28;20474;-44
2022/05/29 08:43:15;;;;;;;2.47;2.00;;;9.40;99.90;;;;;;5093175;28;20887;-42
2022/05/29 08:45:43;;;;;;;2.53;2.10;;;9.50;99.90;;;;;;5092901;28;20873;-44
2022/05/29 08:48:12;;;;;;;3.00;1.60;;;9.70;99.90;;;;;;5092771;28;20519;-40
2022/05/29 08:50:47;;;;;;;2.47;1.97;;;9.90;99.90;;;;;;5092397;28;20443;-42
2022/05/29 08:53:26;;;;;;;3.07;1.53;;;10.20;99.90;;;;;;5093004;28;20443;-43
2022/05/29 08:56:00;;;;;;;2.90;1.27;;;10.30;99.90;;;;;;5092765;28;20474;-43
2022/05/29 08:58:34;;;;;;;3.93;1.10;;;10.40;99.90;;;;;;5092600;28;20464;-43
2022/05/29 09:01:09;;;;;;;3.77;1.50;;;10.60;99.90;;;;;;5092067;28;20813;-43
2022/05/29 09:03:51;;;;;;;1.90;1.67;;;10.80;99.90;;;;;;5092313;28;20500;-45
2022/05/29 09:06:22;;;;;;;2.17;1.33;;;10.80;99.90;;;;;;5092845;28;20474;-42
2022/05/29 09:08:54;;;;;;;2.00;1.50;;;10.90;99.90;;;;;;5092083;28;20512;-43
2022/05/29 09:11:28;;;;;;;3.10;1.40;;;10.90;99.90;;;;;;5092387;28;20501;-43
2022/05/29 09:13:56;;;;;;;2.50;1.73;;;11.00;99.90;;;;;;5092083;28;21016;-46
2022/05/29 09:16:27;;;;;;;1.60;1.13;;;11.20;99.90;;;;;;5092030;28;20566;-45
2022/05/29 09:19:08;;;;;;;1.83;1.40;;;11.00;99.90;;;;;;5091648;28;20431;-44
2022/05/29 09:21:46;;;;;;;2.00;1.50;;;11.00;99.90;;;;;;5091911;28;20438;-44
2022/05/29 09:24:29;;;;;;;1.97;1.77;;;10.70;99.90;;;;;;5091971;28;20507;-42
2022/05/29 09:26:56;;;;;;;4.20;1.90;;;10.70;99.90;;;;;;5091949;28;20490;-42
2022/05/29 09:29:23;;;;;;;3.67;1.90;;;10.70;99.90;;;;;;5091646;28;20501;-47
2022/05/29 09:31:50;;;;;;;2.13;1.70;;;10.60;99.90;;;;;;5091871;28;20488;-43
2022/05/29 09:34:19;;;;;;;7.20;5.87;;;10.60;99.90;;;;;;5092014;28;20568;-42
2022/05/29 09:36:55;;;;;;;6.10;5.27;;;10.30;99.90;;;;;;5091729;28;20566;-42
2022/05/29 09:39:27;;;;;;;4.00;2.83;;;10.50;99.90;;;;;;5091936;28;20439;-46
2022/05/29 09:42:03;;;;;;;3.90;3.33;;;10.70;99.90;;;;;;5092014;28;20447;-43
2022/05/29 09:44:31;;;;;;;2.70;2.10;;;10.90;99.90;;;;;;5092124;28;20461;-44
2022/05/29 09:49:40;;;;;;;2.97;2.30;;;11.00;99.90;;;;;;5091057;28;20452;-43
2022/05/29 09:50:03;;;;;;;2.00;1.80;;;11.00;99.90;;;;;;5091163;28;20510;-45
2022/05/29 09:52:34;;;;;;;8.03;3.30;;;11.00;99.90;;;;;;5091492;28;20810;-42
2022/05/29 09:55:06;;;;;;;6.33;4.10;;;11.10;99.90;;;;;;5091463;28;20440;-42
2022/05/29 09:57:43;;;;;;;27.10;15.50;;;11.20;99.90;;;;;;5091745;28;20543;-44
2022/05/29 10:00:15;;;;;;;4.93;3.63;;;11.20;99.90;;;;;;5091481;28;20443;-43
2022/05/29 10:02:45;;;;;;;3.90;3.00;;;11.20;99.90;;;;;;5091435;28;20444;-43
2022/05/29 10:05:25;;;;;;;3.23;1.87;;;11.30;99.90;;;;;;5091401;28;20877;-46
2022/05/29 10:07:54;;;;;;;2.60;2.40;;;11.30;99.90;;;;;;5091418;28;20495;-43
2022/05/29 10:10:39;;;;;;;2.00;1.70;;;11.30;99.90;;;;;;5091028;28;20475;-43
2022/05/29 10:13:06;;;;;;;3.17;2.00;;;11.20;99.90;;;;;;5091755;28;20471;-43
2022/05/29 10:15:39;;;;;;;2.83;2.30;;;11.20;99.90;;;;;;5091317;28;20463;-44
2022/05/29 10:18:32;;;;;;;2.17;1.70;;;11.30;99.90;;;;;;5091235;28;20999;-39
2022/05/29 10:21:15;;;;;;;3.40;2.40;;;11.30;99.90;;;;;;5091119;28;20443;-43
2022/05/29 10:23:48;;;;;;;2.90;1.80;;;11.30;99.90;;;;;;5091629;28;20454;-43
2022/05/29 10:26:31;;;;;;;1.90;1.30;;;10.80;99.90;;;;;;5091716;28;20777;-42
2022/05/29 10:28:59;;;;;;;1.97;1.87;;;10.50;99.90;;;;;;5091033;28;20445;-44
2022/05/29 10:31:28;;;;;;;3.23;1.80;;;10.50;99.90;;;;;;5091457;28;20439;-40
2022/05/29 10:34:07;;;;;;;3.33;1.80;;;10.60;99.90;;;;;;5088869;28;20831;-43
2022/05/29 10:36:37;;;;;;;8.43;5.20;;;10.70;99.90;;;;;;5090634;28;20895;-43
2022/05/29 10:39:09;;;;;;;5.10;3.10;;;10.80;99.90;;;;;;5090896;28;20478;-44
2022/05/29 10:41:38;;;;;;;4.50;3.40;;;10.90;99.90;;;;;;5091054;28;20535;-46
2022/05/29 10:44:06;;;;;;;6.03;1.93;;;11.00;99.90;;;;;;5091405;28;20443;-43
2022/05/29 10:46:42;;;;;;;2.33;1.70;;;11.00;99.90;;;;;;5091131;28;20805;-42
2022/05/29 10:49:25;;;;;;;2.40;1.73;;;11.00;99.90;;;;;;5090814;28;20499;-43
2022/05/29 10:52:20;;;;;;;1.97;1.50;;;11.10;99.90;;;;;;5091145;28;20936;-47
2022/05/29 10:55:13;;;;;;;2.30;1.80;;;11.10;99.90;;;;;;5056068;28;20863;-43
2022/05/29 10:57:56;;;;;;;2.43;1.73;;;11.10;99.90;;;;;;5091325;28;20479;-44
2022/05/29 11:00:37;;;;;;;4.53;1.70;;;11.20;99.90;;;;;;5094447;28;20439;-43
2022/05/29 11:03:43;;;;;;;2.10;1.60;;;11.20;99.90;;;;;;5094866;28;20447;-44
2022/05/29 11:06:36;;;;;;;2.70;1.83;;;11.30;99.90;;;;;;5095115;28;20407;-43
2022/05/29 11:09:22;;;;;;;2.10;1.80;;;11.30;99.90;;;;;;5094360;28;20835;-42
2022/05/29 11:11:57;;;;;;;3.90;2.60;;;11.30;99.90;;;;;;5094552;28;20439;-43
2022/05/29 11:14:48;;;;;;;1.43;1.30;;;11.30;99.90;;;;;;5094581;28;20642;-41
2022/05/29 11:17:24;;;;;;;1.53;1.30;;;11.20;99.90;;;;;;5094035;28;20510;-45
2022/05/29 11:20:04;;;;;;;2.13;1.40;;;11.20;99.90;;;;;;5094468;28;20442;-43
2022/05/29 11:22:37;;;;;;;1.53;1.43;;;11.30;99.90;;;;;;5094493;28;20453;-43
2022/05/29 11:25:17;;;;;;;2.53;1.60;;;11.30;99.90;;;;;;5094325;28;20479;-43
2022/05/29 11:28:08;;;;;;;1.40;1.27;;;11.30;99.90;;;;;;5094116;28;20868;-42
2022/05/29 11:30:47;;;;;;;1.40;1.13;;;11.20;99.90;;;;;;5094055;28;20439;-46
2022/05/29 11:33:33;;;;;;;1.40;1.10;;;11.10;99.90;;;;;;5093956;28;20931;-43
2022/05/29 11:36:14;;;;;;;1.77;1.10;;;11.10;99.90;;;;;;5093950;28;20478;-43
2022/05/29 11:39:12;;;;;;;1.73;1.60;;;11.10;99.90;;;;;;5094100;28;20852;-41
2022/05/29 11:41:44;;;;;;;1.87;1.50;;;11.10;99.90;;;;;;5093950;28;20444;-43
2022/05/29 11:44:20;;;;;;;2.27;1.23;;;11.00;99.90;;;;;;5093612;28;20475;-42
2022/05/29 11:52:33;;;;;;;1.97;1.37;;;10.90;99.90;;;;;;5094091;28;20501;-43
2022/05/29 11:55:04;;;;;;;1.70;1.37;;;10.90;99.90;;;;;;5093923;28;20443;-42
2022/05/29 11:57:39;;;;;;;1.43;1.30;;;10.90;99.90;;;;;;5093507;28;20562;-44
2022/05/29 12:00:10;;;;;;;2.50;1.10;;;10.90;99.90;;;;;;5093534;28;20512;-43
2022/05/29 12:02:46;;;;;;;1.90;1.40;;;11.00;99.90;;;;;;5093752;28;20531;-43
2022/05/29 12:05:29;;;;;;;2.30;1.27;;;11.00;99.90;;;;;;5093753;28;20450;-43
2022/05/29 12:08:03;;;;;;;1.47;1.20;;;11.10;99.90;;;;;;5093644;28;20486;-42
2022/05/29 12:10:35;;;;;;;1.60;1.33;;;11.20;99.90;;;;;;5092569;28;20455;-45
2022/05/29 12:13:08;;;;;;;1.47;1.37;;;11.20;99.90;;;;;;5093608;28;20467;-43
2022/05/29 12:15:35;;;;;;;2.13;1.10;;;11.20;99.90;;;;;;5093457;28;20524;-43
2022/05/29 12:18:07;;;;;;;1.53;1.17;;;11.30;99.90;;;;;;5143653;22;20496;-45
2022/05/29 12:20:41;;;;;;;1.63;1.10;;;11.20;99.90;;;;;;5072510;28;20921;-45
2022/05/29 12:23:27;;;;;;;1.37;1.13;;;11.30;99.90;;;;;;5073157;28;20530;-45
2022/05/29 12:26:00;;;;;;;1.53;1.10;;;11.30;99.90;;;;;;5072759;28;20467;-45
2022/05/29 12:28:37;;;;;;;1.47;1.27;;;11.30;99.90;;;;;;5073188;28;20470;-45
2022/05/29 12:31:08;;;;;;;2.73;1.60;;;11.40;99.90;;;;;;5072776;28;20963;-45
2022/05/29 12:33:35;;;;;;;2.60;1.70;;;11.40;99.90;;;;;;5072964;28;20436;-48
2022/05/29 12:36:15;;;;;;;4.20;2.40;;;11.40;99.90;;;;;;5072996;28;20487;-46
2022/05/29 12:39:03;;;;;;;1.40;1.20;;;11.30;99.90;;;;;;5072714;28;20556;-45
2022/05/29 12:42:06;;;;;;;2.50;2.30;;;11.30;99.90;;;;;;5072559;28;20818;-46
2022/05/29 12:44:55;;;;;;;2.80;2.60;;;11.30;99.90;;;;;;5072369;28;20436;-46
2022/05/29 12:47:54;;;;;;;6.60;6.10;;;11.30;99.90;;;;;;5072670;28;20506;-48
2022/05/29 12:50:50;;;;;;;1.57;1.10;;;11.10;99.90;;;;;;5072279;28;20505;-46
2022/05/29 12:53:39;;;;;;;1.73;1.17;;;11.20;99.90;;;;;;5066262;28;20486;-46
2022/05/29 12:56:44;;;;;;;3.30;1.40;;;11.20;99.90;;;;;;5072310;28;20477;-48
2022/05/29 12:59:43;;;;;;;4.70;1.60;;;11.20;99.90;;;;;;5072251;28;20503;-45
2022/05/29 13:02:20;;;;;;;1.70;1.60;;;11.20;99.90;;;;;;5072495;28;20448;-45
2022/05/29 13:05:16;;;;;;;1.60;1.10;;;11.20;99.90;;;;;;5072333;28;20482;-46
2022/05/29 13:08:32;;;;;;;1.60;0.97;;;11.20;99.90;;;;;;5072353;28;20517;-47
2022/05/29 13:11:01;;;;;;;1.30;0.90;;;11.20;99.90;;;;;;5034408;28;20555;-45
2022/05/29 13:13:34;;;;;;;1.00;0.80;;;11.20;99.90;;;;;;5076404;28;20487;-45
2022/05/29 13:16:21;;;;;;;1.70;0.90;;;11.30;99.90;;;;;;5071086;28;20500;-46
2022/05/29 13:21:58;;;;;;;1.60;1.07;;;11.40;99.90;;;;;;5070573;28;20962;-45
2022/05/29 13:24:27;;;;;;;1.50;1.23;;;11.50;99.90;;;;;;5070772;28;20443;-46
2022/05/29 13:27:32;;;;;;;1.20;0.90;;;11.60;99.90;;;;;;5070697;28;20482;-45
2022/05/29 13:30:02;;;;;;;2.50;1.37;;;11.60;99.90;;;;;;5070862;28;20501;-47
2022/05/29 13:32:33;;;;;;;1.10;0.83;;;11.50;99.90;;;;;;5070913;28;20448;-45
2022/05/29 13:35:41;;;;;;;1.30;0.80;;;11.60;99.90;;;;;;5071046;28;20436;-45
2022/05/29 13:38:08;;;;;;;1.60;1.10;;;11.70;99.90;;;;;;5057824;28;20559;-45
2022/05/29 13:40:42;;;;;;;1.60;1.07;;;11.70;99.90;;;;;;5070353;28;20476;-49
2022/05/29 13:43:36;;;;;;;1.10;0.90;;;11.80;99.90;;;;;;5070725;28;20448;-48
2022/05/29 13:46:19;;;;;;;1.77;1.40;;;11.90;99.90;;;;;;5070570;28;20444;-44
2022/05/29 13:49:08;;;;;;;1.50;1.33;;;11.90;99.90;;;;;;5070086;28;20547;-47